sensor_id;sensor_type;location;lat;lon;timestamp;pressure;altitude;pressure_sealevel;temperature;humidity
27334;BME280;14817;57.104;-2.094;2023-02-12T00:01:48;102295.75;;;7.95;100.00
27334;BME280;14817;57.104;-2.094;2023-02-12T00:04:15;102287.09;;;7.92;100.00
27334;BME280;14817;57.104;-2.094;2023-02-12T00:06:42;102299.84;;;8.01;100.00
27334;BME280;14817;57.104;-2.094;2023-02-12T00:09:08;102299.59;;;8.06;100.00
27334;BME280;14817;57.104;-2.094;2023-02-12T00:11:35;102303.56;;;7.98;100.00
27334;BME280;14817;57.104;-2.094;2023-02-12T00:14:02;102307.38;;;7.94;100.00
27334;BME280;14817;57.104;-2.094;2023-02-12T00:16:30;102297.16;;;7.87;100.00
27334;BME280;14817;57.104;-2.094;2023-02-12T00:18:57;102302.84;;;7.81;100.00
27334;BME280;14817;57.104;-2.094;2023-02-12T00:21:24;102307.41;;;7.78;100.00
27334;BME280;14817;57.104;-2.094;2023-02-12T00:23:50;102295.53;;;7.84;100.00
27334;BME280;14817;57.104;-2.094;2023-02-12T00:26:18;102296.22;;;7.88;100.00
27334;BME280;14817;57.104;-2.094;2023-02-12T00:28:48;102295.88;;;7.78;100.00
27334;BME280;14817;57.104;-2.094;2023-02-12T00:31:17;102306.56;;;7.78;100.00
27334;BME280;14817;57.104;-2.094;2023-02-12T00:33:44;102301.72;;;7.85;100.00
27334;BME280;14817;57.104;-2.094;2023-02-12T00:36:16;102293.81;;;7.83;100.00
27334;BME280;14817;57.104;-2.094;2023-02-12T00:38:43;102296.75;;;7.78;100.00
27334;BME280;14817;57.104;-2.094;2023-02-12T00:41:10;102293.31;;;7.76;100.00
27334;BME280;14817;57.104;-2.094;2023-02-12T00:43:37;102294.00;;;7.80;100.00
27334;BME280;14817;57.104;-2.094;2023-02-12T00:46:04;102289.00;;;7.74;100.00
27334;BME280;14817;57.104;-2.094;2023-02-12T00:48:32;102290.91;;;7.72;100.00
27334;BME280;14817;57.104;-2.094;2023-02-12T00:50:59;102284.41;;;7.92;100.00
27334;BME280;14817;57.104;-2.094;2023-02-12T00:53:27;102283.44;;;7.93;100.00
27334;BME280;14817;57.104;-2.094;2023-02-12T00:55:53;102285.34;;;7.91;100.00
27334;BME280;14817;57.104;-2.094;2023-02-12T00:58:21;102286.03;;;7.94;100.00
27334;BME280;14817;57.104;-2.094;2023-02-12T01:00:48;102280.50;;;7.97;100.00
27334;BME280;14817;57.104;-2.094;2023-02-12T01:03:14;102287.28;;;8.03;100.00
27334;BME280;14817;57.104;-2.094;2023-02-12T01:05:41;102290.16;;;8.00;100.00
27334;BME280;14817;57.104;-2.094;2023-02-12T01:08:09;102288.75;;;8.09;100.00
27334;BME280;14817;57.104;-2.094;2023-02-12T01:10:36;102285.47;;;8.04;100.00
27334;BME280;14817;57.104;-2.094;2023-02-12T01:13:03;102281.19;;;8.01;100.00
27334;BME280;14817;57.104;-2.094;2023-02-12T01:15:30;102284.63;;;8.03;100.00
27334;BME280;14817;57.104;-2.094;2023-02-12T01:17:56;102282.81;;;8.04;100.00
27334;BME280;14817;57.104;-2.094;2023-02-12T01:20:23;102279.47;;;8.00;100.00
27334;BME280;14817;57.104;-2.094;2023-02-12T01:22:51;102281.94;;;8.03;100.00
27334;BME280;14817;57.104;-2.094;2023-02-12T01:25:18;102280.91;;;8.06;100.00
27334;BME280;14817;57.104;-2.094;2023-02-12T01:27:46;102281.66;;;8.08;100.00
27334;BME280;14817;57.104;-2.094;2023-02-12T01:30:16;102284.34;;;8.08;100.00
27334;BME280;14817;57.104;-2.094;2023-02-12T01:32:43;102285.09;;;8.10;100.00
27334;BME280;14817;57.104;-2.094;2023-02-12T01:35:09;102284.94;;;8.13;100.00
27334;BME280;14817;57.104;-2.094;2023-02-12T01:37:39;102290.84;;;8.18;100.00
27334;BME280;14817;57.104;-2.094;2023-02-12T01:40:07;102290.16;;;8.14;100.00
27334;BME280;14817;57.104;-2.094;2023-02-12T01:42:34;102283.78;;;8.17;100.00
27334;BME280;14817;57.104;-2.094;2023-02-12T01:47:43;102281.94;;;8.03;100.00
27334;BME280;14817;57.104;-2.094;2023-02-12T01:50:12;102275.66;;;8.04;100.00
27334;BME280;14817;57.104;-2.094;2023-02-12T01:52:41;102270.91;;;8.09;100.00
27334;BME280;14817;57.104;-2.094;2023-02-12T01:55:08;102270.16;;;8.07;100.00
27334;BME280;14817;57.104;-2.094;2023-02-12T01:57:37;102273.88;;;8.05;100.00
27334;BME280;14817;57.104;-2.094;2023-02-12T02:00:07;102269.47;;;8.04;100.00
27334;BME280;14817;57.104;-2.094;2023-02-12T02:02:39;102269.47;;;8.04;100.00
27334;BME280;14817;57.104;-2.094;2023-02-12T02:05:08;102276.22;;;7.95;100.00
27334;BME280;14817;57.104;-2.094;2023-02-12T02:07:34;102274.50;;;7.94;100.00
27334;BME280;14817;57.104;-2.094;2023-02-12T02:10:02;102275.53;;;7.91;100.00
27334;BME280;14817;57.104;-2.094;2023-02-12T02:12:29;102271.44;;;7.86;100.00
27334;BME280;14817;57.104;-2.094;2023-02-12T02:15:15;102270.75;;;7.82;100.00
27334;BME280;14817;57.104;-2.094;2023-02-12T02:18:01;102269.41;;;7.75;100.00
27334;BME280;14817;57.104;-2.094;2023-02-12T02:20:58;102276.09;;;7.82;100.00
27334;BME280;14817;57.104;-2.094;2023-02-12T02:36:45;102290.63;;;7.76;100.00
27334;BME280;14817;57.104;-2.094;2023-02-12T02:39:28;102291.50;;;7.77;100.00
27334;BME280;14817;57.104;-2.094;2023-02-12T02:42:03;102296.09;;;7.75;100.00
27334;BME280;14817;57.104;-2.094;2023-02-12T02:44:34;102285.41;;;7.75;100.00
27334;BME280;14817;57.104;-2.094;2023-02-12T02:47:03;102290.63;;;7.76;100.00
27334;BME280;14817;57.104;-2.094;2023-02-12T02:49:34;102287.88;;;7.78;100.00
27334;BME280;14817;57.104;-2.094;2023-02-12T02:52:05;102279.47;;;7.70;100.00
27334;BME280;14817;57.104;-2.094;2023-02-12T02:54:35;102273.38;;;7.68;100.00
27334;BME280;14817;57.104;-2.094;2023-02-12T02:57:05;102282.91;;;7.72;100.00
27334;BME280;14817;57.104;-2.094;2023-02-12T02:59:34;102283.69;;;7.74;100.00
27334;BME280;14817;57.104;-2.094;2023-02-12T03:02:08;102279.19;;;7.74;100.00
27334;BME280;14817;57.104;-2.094;2023-02-12T03:04:39;102283.31;;;7.80;100.00
27334;BME280;14817;57.104;-2.094;2023-02-12T03:07:09;102283.94;;;7.85;100.00
27334;BME280;14817;57.104;-2.094;2023-02-12T03:09:44;102283.72;;;7.88;100.00
27334;BME280;14817;57.104;-2.094;2023-02-12T03:12:17;102294.31;;;7.90;100.00
27334;BME280;14817;57.104;-2.094;2023-02-12T03:14:46;102297.16;;;7.87;100.00
27334;BME280;14817;57.104;-2.094;2023-02-12T03:17:25;102296.38;;;7.85;100.00
27334;BME280;14817;57.104;-2.094;2023-02-12T03:20:01;102300.50;;;7.90;100.00
27334;BME280;14817;57.104;-2.094;2023-02-12T03:22:33;102301.06;;;7.81;100.00
27334;BME280;14817;57.104;-2.094;2023-02-12T03:27:39;102290.38;;;7.81;100.00
27334;BME280;14817;57.104;-2.094;2023-02-12T03:30:07;102292.16;;;7.81;100.00
27334;BME280;14817;57.104;-2.094;2023-02-12T03:32:36;102285.56;;;7.72;100.00
27334;BME280;14817;57.104;-2.094;2023-02-12T03:37:33;102275.88;;;7.71;100.00
27334;BME280;14817;57.104;-2.094;2023-02-12T03:40:19;102284.03;;;7.68;100.00
27334;BME280;14817;57.104;-2.094;2023-02-12T03:42:58;102280.72;;;7.64;100.00
27334;BME280;14817;57.104;-2.094;2023-02-12T03:45:29;102276.91;;;7.68;100.00
27334;BME280;14817;57.104;-2.094;2023-02-12T03:48:07;102278.41;;;7.58;100.00
27334;BME280;14817;57.104;-2.094;2023-02-12T03:50:42;102273.91;;;7.59;100.00
27334;BME280;14817;57.104;-2.094;2023-02-12T03:53:10;102273.72;;;7.62;100.00
27334;BME280;14817;57.104;-2.094;2023-02-12T03:55:38;102273.56;;;7.65;100.00
27334;BME280;14817;57.104;-2.094;2023-02-12T03:58:06;102275.66;;;7.60;100.00
27334;BME280;14817;57.104;-2.094;2023-02-12T04:00:36;102280.78;;;7.63;100.00
27334;BME280;14817;57.104;-2.094;2023-02-12T04:03:03;102281.91;;;7.59;100.00
27334;BME280;14817;57.104;-2.094;2023-02-12T04:05:30;102278.41;;;7.58;100.00
27334;BME280;14817;57.104;-2.094;2023-02-12T04:07:56;102291.81;;;7.56;100.00
27334;BME280;14817;57.104;-2.094;2023-02-12T04:10:31;102287.25;;;7.59;100.00
27334;BME280;14817;57.104;-2.094;2023-02-12T04:13:10;102295.16;;;7.60;100.00
27334;BME280;14817;57.104;-2.094;2023-02-12T04:25:52;102285.44;;;7.59;100.00
27334;BME280;14817;57.104;-2.094;2023-02-12T04:28:27;102301.34;;;7.61;100.00
27334;BME280;14817;57.104;-2.094;2023-02-12T04:33:34;102298.00;;;7.57;100.00
27334;BME280;14817;57.104;-2.094;2023-02-12T04:36:05;102299.72;;;7.58;100.00
27334;BME280;14817;57.104;-2.094;2023-02-12T04:38:42;102296.28;;;7.56;100.00
27334;BME280;14817;57.104;-2.094;2023-02-12T04:41:11;102300.94;;;7.52;100.00
27334;BME280;14817;57.104;-2.094;2023-02-12T04:43:38;102302.16;;;7.47;100.00
27334;BME280;14817;57.104;-2.094;2023-02-12T04:46:06;102305.56;;;7.49;100.00
27334;BME280;14817;57.104;-2.094;2023-02-12T04:48:33;102309.97;;;7.50;100.00
27334;BME280;14817;57.104;-2.094;2023-02-12T04:51:01;102311.03;;;7.47;100.00
27334;BME280;14817;57.104;-2.094;2023-02-12T04:53:28;102307.50;;;7.47;100.00
27334;BME280;14817;57.104;-2.094;2023-02-12T04:55:54;102303.03;;;7.47;100.00
27334;BME280;14817;57.104;-2.094;2023-02-12T04:58:21;102306.19;;;7.54;100.00
27334;BME280;14817;57.104;-2.094;2023-02-12T05:00:48;102314.63;;;7.46;100.00
27334;BME280;14817;57.104;-2.094;2023-02-12T05:03:15;102313.06;;;7.42;100.00
27334;BME280;14817;57.104;-2.094;2023-02-12T05:05:41;102307.38;;;7.48;100.00
27334;BME280;14817;57.104;-2.094;2023-02-12T05:08:08;102312.06;;;7.45;100.00
27334;BME280;14817;57.104;-2.094;2023-02-12T05:10:34;102315.22;;;7.35;100.00
27334;BME280;14817;57.104;-2.094;2023-02-12T05:13:01;102324.63;;;7.43;100.00
27334;BME280;14817;57.104;-2.094;2023-02-12T05:15:30;102326.25;;;7.45;100.00
27334;BME280;14817;57.104;-2.094;2023-02-12T05:17:56;102327.94;;;7.46;100.00
27334;BME280;14817;57.104;-2.094;2023-02-12T05:20:23;102322.09;;;7.40;100.00
27334;BME280;14817;57.104;-2.094;2023-02-12T05:22:50;102326.41;;;7.42;100.00
27334;BME280;14817;57.104;-2.094;2023-02-12T05:25:17;102321.75;;;7.46;100.00
27334;BME280;14817;57.104;-2.094;2023-02-12T05:27:43;102329.59;;;7.33;100.00
27334;BME280;14817;57.104;-2.094;2023-02-12T05:30:10;102326.84;;;7.34;100.00
27334;BME280;14817;57.104;-2.094;2023-02-12T05:32:37;102334.94;;;7.33;100.00
27334;BME280;14817;57.104;-2.094;2023-02-12T05:35:05;102321.59;;;7.33;100.00
27334;BME280;14817;57.104;-2.094;2023-02-12T05:37:33;102320.38;;;7.23;100.00
27334;BME280;14817;57.104;-2.094;2023-02-12T05:40:00;102324.53;;;7.28;100.00
27334;BME280;14817;57.104;-2.094;2023-02-12T05:42:27;102318.41;;;7.26;100.00
27334;BME280;14817;57.104;-2.094;2023-02-12T05:44:54;102315.41;;;7.32;100.00
27334;BME280;14817;57.104;-2.094;2023-02-12T05:47:21;102310.69;;;7.22;100.00
27334;BME280;14817;57.104;-2.094;2023-02-12T05:49:47;102309.31;;;7.30;100.00
27334;BME280;14817;57.104;-2.094;2023-02-12T05:52:14;102311.28;;;7.27;100.00
27334;BME280;14817;57.104;-2.094;2023-02-12T05:54:40;102303.56;;;7.22;100.00
27334;BME280;14817;57.104;-2.094;2023-02-12T05:57:07;102299.59;;;7.13;100.00
27334;BME280;14817;57.104;-2.094;2023-02-12T05:59:33;102297.00;;;7.12;100.00
27334;BME280;14817;57.104;-2.094;2023-02-12T06:02:00;102303.56;;;7.06;100.00
27334;BME280;14817;57.104;-2.094;2023-02-12T06:04:27;102295.81;;;7.02;100.00
27334;BME280;14817;57.104;-2.094;2023-02-12T06:06:54;102293.59;;;6.94;100.00
27334;BME280;14817;57.104;-2.094;2023-02-12T06:09:21;102283.28;;;6.88;100.00
27334;BME280;14817;57.104;-2.094;2023-02-12T06:11:48;102297.63;;;6.85;100.00
27334;BME280;14817;57.104;-2.094;2023-02-12T06:14:16;102297.88;;;6.81;100.00
27334;BME280;14817;57.104;-2.094;2023-02-12T06:16:44;102297.09;;;6.79;100.00
27334;BME280;14817;57.104;-2.094;2023-02-12T06:19:12;102301.47;;;6.64;100.00
27334;BME280;14817;57.104;-2.094;2023-02-12T06:21:38;102313.34;;;6.57;100.00
27334;BME280;14817;57.104;-2.094;2023-02-12T06:24:05;102307.06;;;6.42;100.00
27334;BME280;14817;57.104;-2.094;2023-02-12T06:26:32;102307.22;;;6.39;100.00
27334;BME280;14817;57.104;-2.094;2023-02-12T06:28:59;102303.00;;;6.34;100.00
27334;BME280;14817;57.104;-2.094;2023-02-12T06:31:30;102310.38;;;6.29;100.00
27334;BME280;14817;57.104;-2.094;2023-02-12T06:33:58;102313.50;;;6.20;100.00
27334;BME280;14817;57.104;-2.094;2023-02-12T06:36:25;102312.56;;;6.21;100.00
27334;BME280;14817;57.104;-2.094;2023-02-12T06:38:52;102302.41;;;6.12;100.00
27334;BME280;14817;57.104;-2.094;2023-02-12T06:41:19;102316.50;;;5.97;100.00
27334;BME280;14817;57.104;-2.094;2023-02-12T06:43:46;102315.06;;;5.89;100.00
27334;BME280;14817;57.104;-2.094;2023-02-12T06:46:13;102312.72;;;5.83;100.00
27334;BME280;14817;57.104;-2.094;2023-02-12T06:48:40;102306.75;;;5.78;100.00
27334;BME280;14817;57.104;-2.094;2023-02-12T06:51:10;102303.16;;;5.79;100.00
27334;BME280;14817;57.104;-2.094;2023-02-12T06:53:37;102304.97;;;5.79;100.00
27334;BME280;14817;57.104;-2.094;2023-02-12T06:56:04;102300.03;;;5.71;100.00
27334;BME280;14817;57.104;-2.094;2023-02-12T06:58:32;102313.47;;;5.68;100.00
27334;BME280;14817;57.104;-2.094;2023-02-12T07:01:10;102307.22;;;5.69;100.00
27334;BME280;14817;57.104;-2.094;2023-02-12T07:03:43;102308.59;;;5.59;100.00
27334;BME280;14817;57.104;-2.094;2023-02-12T07:06:10;102307.91;;;5.55;100.00
27334;BME280;14817;57.104;-2.094;2023-02-12T07:08:36;102304.47;;;5.53;100.00
27334;BME280;14817;57.104;-2.094;2023-02-12T07:11:03;102309.00;;;5.51;100.00
27334;BME280;14817;57.104;-2.094;2023-02-12T07:13:30;102311.78;;;5.48;100.00
27334;BME280;14817;57.104;-2.094;2023-02-12T07:16:07;102320.72;;;5.47;100.00
27334;BME280;14817;57.104;-2.094;2023-02-12T07:18:34;102324.69;;;5.38;100.00
27334;BME280;14817;57.104;-2.094;2023-02-12T07:21:01;102327.63;;;5.32;100.00
27334;BME280;14817;57.104;-2.094;2023-02-12T07:23:28;102321.22;;;5.36;100.00
27334;BME280;14817;57.104;-2.094;2023-02-12T07:25:55;102327.97;;;5.43;100.00
27334;BME280;14817;57.104;-2.094;2023-02-12T07:28:22;102332.34;;;5.44;100.00
27334;BME280;14817;57.104;-2.094;2023-02-12T07:30:50;102335.13;;;5.41;100.00
27334;BME280;14817;57.104;-2.094;2023-02-12T07:33:17;102329.03;;;5.39;100.00
27334;BME280;14817;57.104;-2.094;2023-02-12T07:35:43;102332.78;;;5.35;100.00
27334;BME280;14817;57.104;-2.094;2023-02-12T07:38:10;102336.31;;;5.36;100.00
27334;BME280;14817;57.104;-2.094;2023-02-12T07:40:37;102331.69;;;5.39;100.00
27334;BME280;14817;57.104;-2.094;2023-02-12T07:43:03;102345.06;;;5.38;100.00
27334;BME280;14817;57.104;-2.094;2023-02-12T07:45:34;102347.81;;;5.36;100.00
27334;BME280;14817;57.104;-2.094;2023-02-12T07:48:00;102347.00;;;5.34;100.00
27334;BME280;14817;57.104;-2.094;2023-02-12T07:50:27;102350.69;;;5.31;100.00
27334;BME280;14817;57.104;-2.094;2023-02-12T07:52:54;102353.19;;;5.35;100.00
27334;BME280;14817;57.104;-2.094;2023-02-12T07:55:20;102355.78;;;5.36;100.00
27334;BME280;14817;57.104;-2.094;2023-02-12T07:57:47;102363.75;;;5.36;100.00
27334;BME280;14817;57.104;-2.094;2023-02-12T08:00:14;102359.28;;;5.37;100.00
27334;BME280;14817;57.104;-2.094;2023-02-12T08:02:40;102360.28;;;5.34;100.00
27334;BME280;14817;57.104;-2.094;2023-02-12T08:05:07;102357.75;;;5.31;100.00
27334;BME280;14817;57.104;-2.094;2023-02-12T08:07:34;102370.19;;;5.30;100.00
27334;BME280;14817;57.104;-2.094;2023-02-12T08:10:00;102368.25;;;5.34;100.00
27334;BME280;14817;57.104;-2.094;2023-02-12T08:12:27;102356.84;;;5.32;100.00
27334;BME280;14817;57.104;-2.094;2023-02-12T08:14:54;102364.66;;;5.35;100.00
27334;BME280;14817;57.104;-2.094;2023-02-12T08:17:20;102362.00;;;5.35;100.00
27334;BME280;14817;57.104;-2.094;2023-02-12T08:19:47;102357.25;;;5.42;100.00
27334;BME280;14817;57.104;-2.094;2023-02-12T08:22:14;102359.06;;;5.41;100.00
27334;BME280;14817;57.104;-2.094;2023-02-12T08:24:40;102359.72;;;5.46;100.00
27334;BME280;14817;57.104;-2.094;2023-02-12T08:27:07;102352.81;;;5.42;100.00
27334;BME280;14817;57.104;-2.094;2023-02-12T08:29:34;102365.50;;;5.55;100.00
27334;BME280;14817;57.104;-2.094;2023-02-12T08:32:01;102365.06;;;6.00;100.00
27334;BME280;14817;57.104;-2.094;2023-02-12T08:34:30;102364.31;;;6.66;100.00
27334;BME280;14817;57.104;-2.094;2023-02-12T08:36:57;102363.72;;;7.26;100.00
27334;BME280;14817;57.104;-2.094;2023-02-12T08:39:26;102359.06;;;7.62;100.00
27334;BME280;14817;57.104;-2.094;2023-02-12T08:41:53;102356.09;;;7.98;100.00
27334;BME280;14817;57.104;-2.094;2023-02-12T08:44:20;102353.34;;;8.44;100.00
27334;BME280;14817;57.104;-2.094;2023-02-12T08:46:47;102358.63;;;8.89;100.00
27334;BME280;14817;57.104;-2.094;2023-02-12T08:49:22;102359.88;;;9.39;100.00
27334;BME280;14817;57.104;-2.094;2023-02-12T08:51:50;102362.97;;;9.18;100.00
27334;BME280;14817;57.104;-2.094;2023-02-12T08:54:18;102363.56;;;9.09;100.00
27334;BME280;14817;57.104;-2.094;2023-02-12T08:56:45;102360.28;;;9.60;100.00
27334;BME280;14817;57.104;-2.094;2023-02-12T08:59:13;102363.22;;;9.43;100.00
27334;BME280;14817;57.104;-2.094;2023-02-12T09:01:40;102358.31;;;10.16;100.00
27334;BME280;14817;57.104;-2.094;2023-02-12T09:04:12;102357.97;;;10.08;100.00
27334;BME280;14817;57.104;-2.094;2023-02-12T09:06:40;102362.59;;;10.19;100.00
27334;BME280;14817;57.104;-2.094;2023-02-12T09:09:07;102361.91;;;10.30;100.00
27334;BME280;14817;57.104;-2.094;2023-02-12T09:11:34;102360.75;;;10.72;100.00
27334;BME280;14817;57.104;-2.094;2023-02-12T09:14:02;102359.47;;;10.52;100.00
27334;BME280;14817;57.104;-2.094;2023-02-12T09:16:29;102366.63;;;10.77;100.00
27334;BME280;14817;57.104;-2.094;2023-02-12T09:18:56;102367.28;;;10.81;100.00
27334;BME280;14817;57.104;-2.094;2023-02-12T09:21:23;102357.66;;;11.15;100.00
27334;BME280;14817;57.104;-2.094;2023-02-12T09:23:50;102359.75;;;10.99;100.00
27334;BME280;14817;57.104;-2.094;2023-02-12T09:26:17;102358.84;;;11.11;100.00
27334;BME280;14817;57.104;-2.094;2023-02-12T09:28:46;102363.94;;;10.77;100.00
27334;BME280;14817;57.104;-2.094;2023-02-12T09:31:14;102363.66;;;10.44;100.00
27334;BME280;14817;57.104;-2.094;2023-02-12T09:33:41;102369.53;;;10.36;100.00
27334;BME280;14817;57.104;-2.094;2023-02-12T09:36:12;102368.56;;;10.88;100.00
27334;BME280;14817;57.104;-2.094;2023-02-12T09:38:39;102361.38;;;11.01;100.00
27334;BME280;14817;57.104;-2.094;2023-02-12T09:51:23;102357.22;;;11.21;100.00
27334;BME280;14817;57.104;-2.094;2023-02-12T09:53:55;102343.91;;;11.81;100.00
27334;BME280;14817;57.104;-2.094;2023-02-12T09:56:25;102349.34;;;11.68;100.00
27334;BME280;14817;57.104;-2.094;2023-02-12T09:58:55;102343.53;;;12.10;100.00
27334;BME280;14817;57.104;-2.094;2023-02-12T10:01:27;102352.56;;;11.36;100.00
27334;BME280;14817;57.104;-2.094;2023-02-12T10:03:54;102348.09;;;11.61;100.00
27334;BME280;14817;57.104;-2.094;2023-02-12T10:06:24;102338.84;;;11.89;100.00
27334;BME280;14817;57.104;-2.094;2023-02-12T10:13:56;102345.84;;;12.50;100.00
27334;BME280;14817;57.104;-2.094;2023-02-12T10:23:59;102347.47;;;12.05;100.00
27334;BME280;14817;57.104;-2.094;2023-02-12T10:26:34;102344.97;;;11.67;100.00
27334;BME280;14817;57.104;-2.094;2023-02-12T10:29:25;102355.63;;;12.04;100.00
27334;BME280;14817;57.104;-2.094;2023-02-12T10:32:38;102356.38;;;12.17;100.00
27334;BME280;14817;57.104;-2.094;2023-02-12T10:34:39;102344.34;;;12.23;100.00
27334;BME280;14817;57.104;-2.094;2023-02-12T10:37:16;102355.94;;;12.23;100.00
27334;BME280;14817;57.104;-2.094;2023-02-12T10:39:51;102353.72;;;12.17;100.00
27334;BME280;14817;57.104;-2.094;2023-02-12T10:44:59;102358.59;;;12.12;100.00
27334;BME280;14817;57.104;-2.094;2023-02-12T10:47:25;102349.91;;;12.20;100.00
27334;BME280;14817;57.104;-2.094;2023-02-12T10:49:56;102355.75;;;12.14;100.00
27334;BME280;14817;57.104;-2.094;2023-02-12T10:54:50;102355.50;;;11.81;100.00
27334;BME280;14817;57.104;-2.094;2023-02-12T10:57:20;102364.38;;;11.34;100.00
27334;BME280;14817;57.104;-2.094;2023-02-12T10:59:49;102358.19;;;11.81;100.00
27334;BME280;14817;57.104;-2.094;2023-02-12T11:02:27;102361.50;;;11.85;100.00
27334;BME280;14817;57.104;-2.094;2023-02-12T11:04:55;102359.16;;;12.04;100.00
27334;BME280;14817;57.104;-2.094;2023-02-12T11:07:23;102348.16;;;11.48;100.00
27334;BME280;14817;57.104;-2.094;2023-02-12T11:09:51;102351.09;;;11.56;100.00
27334;BME280;14817;57.104;-2.094;2023-02-12T11:12:29;102354.31;;;11.61;100.00
27334;BME280;14817;57.104;-2.094;2023-02-12T11:14:56;102366.09;;;11.35;100.00
27334;BME280;14817;57.104;-2.094;2023-02-12T11:17:34;102357.94;;;11.60;100.00
27334;BME280;14817;57.104;-2.094;2023-02-12T11:20:22;102366.38;;;11.19;100.00
27334;BME280;14817;57.104;-2.094;2023-02-12T11:22:55;102358.31;;;11.19;100.00
27334;BME280;14817;57.104;-2.094;2023-02-12T11:25:24;102355.38;;;11.83;100.00
27334;BME280;14817;57.104;-2.094;2023-02-12T11:27:59;102350.38;;;11.78;100.00
27334;BME280;14817;57.104;-2.094;2023-02-12T11:30:26;102358.59;;;11.40;100.00
27334;BME280;14817;57.104;-2.094;2023-02-12T11:32:52;102363.03;;;11.15;100.00
27334;BME280;14817;57.104;-2.094;2023-02-12T11:35:20;102362.00;;;11.42;100.00
27334;BME280;14817;57.104;-2.094;2023-02-12T11:37:55;102358.13;;;11.46;100.00
27334;BME280;14817;57.104;-2.094;2023-02-12T11:40:31;102347.91;;;11.51;100.00
27334;BME280;14817;57.104;-2.094;2023-02-12T11:43:02;102347.50;;;11.44;100.00
27334;BME280;14817;57.104;-2.094;2023-02-12T11:45:42;102346.09;;;11.15;100.00
27334;BME280;14817;57.104;-2.094;2023-02-12T11:50:48;102351.94;;;11.33;100.00
27334;BME280;14817;57.104;-2.094;2023-02-12T11:53:21;102345.22;;;11.51;100.00
27334;BME280;14817;57.104;-2.094;2023-02-12T11:55:52;102350.13;;;11.57;100.00
27334;BME280;14817;57.104;-2.094;2023-02-12T11:58:20;102336.97;;;11.54;100.00
27334;BME280;14817;57.104;-2.094;2023-02-12T12:00:49;102340.69;;;11.28;100.00
27334;BME280;14817;57.104;-2.094;2023-02-12T12:06:05;102338.75;;;10.93;100.00
27334;BME280;14817;57.104;-2.094;2023-02-12T12:13:31;102333.75;;;10.62;100.00
27334;BME280;14817;57.104;-2.094;2023-02-12T12:16:05;102340.50;;;10.55;100.00
27334;BME280;14817;57.104;-2.094;2023-02-12T12:18:55;102326.25;;;10.68;100.00
27334;BME280;14817;57.104;-2.094;2023-02-12T12:21:46;102324.84;;;10.49;100.00
27334;BME280;14817;57.104;-2.094;2023-02-12T12:24:37;102324.69;;;10.25;100.00
27334;BME280;14817;57.104;-2.094;2023-02-12T12:27:16;102322.81;;;10.40;100.00
27334;BME280;14817;57.104;-2.094;2023-02-12T12:30:04;102333.91;;;10.21;100.00
27334;BME280;14817;57.104;-2.094;2023-02-12T12:32:35;102322.03;;;10.25;100.00
27334;BME280;14817;57.104;-2.094;2023-02-12T12:35:07;102312.25;;;10.24;100.00
27334;BME280;14817;57.104;-2.094;2023-02-12T12:40:51;102309.47;;;10.00;100.00
27334;BME280;14817;57.104;-2.094;2023-02-12T12:46:06;102314.22;;;10.09;100.00
27334;BME280;14817;57.104;-2.094;2023-02-12T12:48:56;102309.53;;;9.86;100.00
27334;BME280;14817;57.104;-2.094;2023-02-12T12:51:41;102314.31;;;10.08;100.00
27334;BME280;14817;57.104;-2.094;2023-02-12T13:14:37;102292.91;;;9.68;100.00
27334;BME280;14817;57.104;-2.094;2023-02-12T13:19:48;102291.41;;;9.64;100.00
27334;BME280;14817;57.104;-2.094;2023-02-12T13:27:21;102289.41;;;9.40;100.00
27334;BME280;14817;57.104;-2.094;2023-02-12T13:32:36;102287.69;;;9.39;100.00
27334;BME280;14817;57.104;-2.094;2023-02-12T13:35:12;102293.13;;;9.37;100.00
27334;BME280;14817;57.104;-2.094;2023-02-12T13:37:44;102289.16;;;9.30;100.00
27334;BME280;14817;57.104;-2.094;2023-02-12T13:48:01;102287.09;;;9.07;100.00
27334;BME280;14817;57.104;-2.094;2023-02-12T13:50:46;102289.94;;;9.18;100.00
27334;BME280;14817;57.104;-2.094;2023-02-12T13:56:05;102279.72;;;9.25;100.00
27334;BME280;14817;57.104;-2.094;2023-02-12T14:01:05;102274.16;;;9.28;100.00
27334;BME280;14817;57.104;-2.094;2023-02-12T14:03:34;102273.75;;;9.34;100.00
27334;BME280;14817;57.104;-2.094;2023-02-12T14:08:41;102270.88;;;9.37;100.00
27334;BME280;14817;57.104;-2.094;2023-02-12T14:11:12;102269.97;;;9.24;100.00
27334;BME280;14817;57.104;-2.094;2023-02-12T14:16:22;102268.16;;;9.24;100.00
27334;BME280;14817;57.104;-2.094;2023-02-12T14:21:45;102261.94;;;9.24;100.00
27334;BME280;14817;57.104;-2.094;2023-02-12T14:26:57;102260.38;;;9.07;100.00
27334;BME280;14817;57.104;-2.094;2023-02-12T14:29:24;102261.38;;;8.91;100.00
27334;BME280;14817;57.104;-2.094;2023-02-12T14:31:50;102260.31;;;8.94;100.00
27334;BME280;14817;57.104;-2.094;2023-02-12T14:36:49;102271.44;;;8.73;100.00
27334;BME280;14817;57.104;-2.094;2023-02-12T14:39:34;102260.34;;;8.79;100.00
27334;BME280;14817;57.104;-2.094;2023-02-12T14:45:25;102259.59;;;8.77;100.00
27334;BME280;14817;57.104;-2.094;2023-02-12T14:49:58;102253.94;;;8.82;100.00
27334;BME280;14817;57.104;-2.094;2023-02-12T14:52:31;102261.28;;;8.78;100.00
27334;BME280;14817;57.104;-2.094;2023-02-12T14:55:06;102254.25;;;8.77;100.00
27334;BME280;14817;57.104;-2.094;2023-02-12T14:57:43;102252.34;;;8.79;100.00
27334;BME280;14817;57.104;-2.094;2023-02-12T15:05:33;102255.09;;;8.78;100.00
27334;BME280;14817;57.104;-2.094;2023-02-12T15:13:29;102252.59;;;8.89;100.00
27334;BME280;14817;57.104;-2.094;2023-02-12T15:23:39;102245.47;;;8.75;100.00
27334;BME280;14817;57.104;-2.094;2023-02-12T15:26:11;102246.25;;;8.63;100.00
27334;BME280;14817;57.104;-2.094;2023-02-12T15:28:39;102249.69;;;8.65;100.00
27334;BME280;14817;57.104;-2.094;2023-02-12T15:31:06;102245.19;;;8.66;100.00